createdAt,value
2023-03-23T16:36:50.130Z,11.70
2023-03-23T16:39:19.033Z,15.60
2023-03-23T16:41:46.148Z,15.50
2023-03-23T16:44:13.079Z,15.30
2023-03-23T16:46:39.897Z,15.20
2023-03-23T16:49:06.703Z,15.30
2023-03-23T16:51:35.513Z,15.20
2023-03-23T16:54:02.397Z,15.20
2023-03-23T16:56:29.255Z,15.10
2023-03-23T16:58:56.108Z,15.00
2023-03-23T17:01:22.887Z,15.00
2023-03-23T17:03:49.855Z,15.10
2023-03-23T17:06:16.680Z,15.00
2023-03-23T17:08:43.488Z,14.90
2023-03-23T17:11:11.347Z,14.90
2023-03-23T17:13:38.459Z,14.80
2023-03-23T17:16:05.785Z,14.90
2023-03-23T17:18:32.640Z,14.70
2023-03-23T17:20:59.391Z,14.80
2023-03-23T17:23:26.511Z,14.70
2023-03-23T17:25:54.097Z,14.70
2023-03-23T17:28:21.215Z,14.70
2023-03-23T17:30:48.502Z,14.70
2023-03-23T17:33:15.373Z,14.60
2023-03-23T17:35:43.029Z,14.50
2023-03-23T17:38:09.985Z,14.40
2023-03-23T17:40:36.798Z,14.40
2023-03-23T17:43:04.231Z,14.40
2023-03-23T17:45:31.292Z,14.40
2023-03-23T17:47:58.096Z,14.40
2023-03-23T17:50:25.198Z,14.30
2023-03-23T17:52:52.105Z,14.30
2023-03-23T17:55:18.951Z,14.30
2023-03-23T17:57:46.086Z,14.30
2023-03-23T18:00:13.421Z,14.30
2023-03-23T18:02:40.397Z,14.20
2023-03-23T18:05:09.313Z,14.30
2023-03-23T18:07:36.948Z,14.20
2023-03-23T18:10:11.742Z,14.20
2023-03-23T18:12:40.336Z,14.20
2023-03-23T18:15:08.953Z,14.20
2023-03-23T18:17:36.139Z,14.20
2023-03-23T18:20:04.405Z,14.10
2023-03-23T18:22:31.231Z,14.10
2023-03-23T18:24:58.448Z,14.00
2023-03-23T18:27:26.215Z,14.00
2023-03-23T18:29:53.041Z,14.10
2023-03-23T18:32:20.206Z,14.00
2023-03-23T18:34:47.485Z,14.00
2023-03-23T18:37:14.611Z,14.00
2023-03-23T18:39:41.705Z,14.00
2023-03-23T18:42:08.669Z,14.00
2023-03-23T18:44:35.900Z,13.90
2023-03-23T18:47:02.749Z,14.00
2023-03-23T18:49:30.397Z,13.90
2023-03-23T18:51:57.235Z,14.00
2023-03-23T18:54:24.081Z,14.00
2023-03-23T18:56:51.072Z,14.00
2023-03-23T18:59:18.045Z,14.00
2023-03-23T19:01:45.089Z,13.90
2023-03-23T19:04:13.634Z,13.90
2023-03-23T19:06:40.600Z,13.90
2023-03-23T19:09:07.426Z,13.80
2023-03-23T19:11:34.371Z,13.80
2023-03-23T19:14:03.306Z,13.80
2023-03-23T19:16:38.225Z,13.80
2023-03-23T19:19:08.224Z,13.70
2023-03-23T19:21:37.583Z,13.70
2023-03-23T19:24:07.383Z,13.70
2023-03-23T19:26:38.200Z,13.70
2023-03-23T19:31:46.586Z,13.60
2023-03-23T19:34:14.645Z,13.60
2023-03-23T19:36:42.044Z,13.50
2023-03-23T19:39:15.056Z,13.50
2023-03-23T19:41:45.529Z,13.50
2023-03-23T19:44:12.701Z,13.50
2023-03-23T19:46:39.545Z,13.50
2023-03-23T19:49:07.620Z,13.50
2023-03-23T19:51:34.747Z,13.40
2023-03-23T19:54:01.764Z,13.40
2023-03-23T19:56:30.441Z,13.40
2023-03-23T19:58:57.434Z,13.40
2023-03-23T20:01:24.300Z,13.50
2023-03-23T20:03:51.761Z,13.40
2023-03-23T20:06:18.727Z,13.40
2023-03-23T20:08:47.689Z,13.40
2023-03-23T20:11:19.020Z,13.40
2023-03-23T20:13:48.615Z,13.50
2023-03-23T20:16:16.808Z,13.40
2023-03-23T20:18:46.069Z,13.40
2023-03-23T20:21:15.365Z,13.50
2023-03-23T20:23:43.887Z,13.50
2023-03-23T20:26:14.118Z,13.50
2023-03-23T20:28:42.690Z,13.50
2023-03-23T20:31:24.162Z,13.50
2023-03-23T20:34:00.112Z,13.60
2023-03-23T20:36:36.276Z,13.60
2023-03-23T20:39:12.017Z,13.60
2023-03-23T20:41:40.225Z,13.60
2023-03-23T20:44:09.461Z,13.60
2023-03-23T20:46:36.578Z,13.70
2023-03-23T20:49:05.568Z,13.60
2023-03-23T20:51:33.454Z,13.60
2023-03-23T20:54:02.160Z,13.70
2023-03-23T20:56:29.017Z,13.70
2023-03-23T20:58:56.107Z,13.70
2023-03-23T21:01:23.072Z,13.70
2023-03-23T21:03:53.947Z,13.70
2023-03-23T21:06:21.502Z,13.70
2023-03-23T21:08:49.080Z,13.70
2023-03-23T21:11:21.498Z,13.70
2023-03-23T21:13:49.145Z,13.60
2023-03-23T21:16:16.512Z,13.60
2023-03-23T21:18:43.735Z,13.50
2023-03-23T21:21:11.957Z,13.40
2023-03-23T21:23:47.123Z,13.40
2023-03-23T21:26:16.975Z,13.30
2023-03-23T21:28:45.103Z,13.30
2023-03-23T21:31:12.741Z,13.20
2023-03-23T21:33:39.841Z,13.20
2023-03-23T21:36:07.575Z,13.10
2023-03-23T21:38:34.522Z,13.10
2023-03-23T21:41:10.680Z,13.10
2023-03-23T21:43:38.204Z,13.10
2023-03-23T21:46:08.797Z,13.00
2023-03-23T21:48:38.658Z,13.00
2023-03-23T21:51:12.689Z,13.00
2023-03-23T21:53:39.661Z,13.00
2023-03-23T21:56:08.021Z,13.00
2023-03-23T21:58:37.762Z,13.00
2023-03-23T22:01:08.207Z,12.90
2023-03-23T22:03:35.740Z,12.90
2023-03-23T22:06:17.042Z,12.90
2023-03-23T22:08:45.943Z,12.90
2023-03-23T22:11:16.410Z,12.90
2023-03-23T22:13:43.574Z,12.90
2023-03-23T22:16:13.458Z,12.80
2023-03-23T22:18:43.296Z,12.80
2023-03-23T22:21:11.191Z,12.80
2023-03-23T22:23:38.573Z,12.80
2023-03-23T22:26:06.711Z,12.80
2023-03-23T22:28:37.050Z,12.70
2023-03-23T22:31:18.498Z,12.70
2023-03-23T22:33:47.356Z,12.60
2023-03-23T22:36:14.978Z,12.60
2023-03-23T22:38:44.159Z,12.60
2023-03-23T22:41:19.020Z,12.50
2023-03-23T22:43:46.254Z,12.50
2023-03-23T22:46:13.736Z,12.50
2023-03-23T22:48:40.860Z,12.40
2023-03-23T22:51:09.372Z,12.40
2023-03-23T22:53:36.499Z,12.40
2023-03-23T22:56:06.088Z,12.40
2023-03-23T22:58:33.602Z,12.30
2023-03-23T23:01:07.137Z,12.30
2023-03-23T23:03:35.039Z,12.30
2023-03-23T23:06:02.130Z,12.30
2023-03-23T23:08:30.320Z,12.20
2023-03-23T23:10:58.624Z,12.20
2023-03-23T23:13:26.595Z,12.30
2023-03-23T23:15:56.513Z,12.30
2023-03-23T23:18:24.906Z,12.20
2023-03-23T23:20:54.309Z,12.20
2023-03-23T23:23:21.997Z,12.20
2023-03-23T23:25:49.982Z,12.20
2023-03-23T23:28:17.512Z,12.20
2023-03-23T23:30:45.618Z,12.20
2023-03-23T23:33:12.639Z,12.20
2023-03-23T23:35:40.632Z,12.20
2023-03-23T23:38:12.533Z,12.20
2023-03-23T23:40:42.901Z,12.20
2023-03-23T23:43:15.146Z,12.30
2023-03-23T23:45:42.374Z,12.30
2023-03-23T23:48:09.936Z,12.30
2023-03-23T23:50:36.964Z,12.20
2023-03-23T23:53:05.061Z,12.20
2023-03-23T23:55:32.293Z,12.30
2023-03-23T23:57:59.216Z,12.20
